sensor_id;sensor_type;location;lat;lon;timestamp;pressure;altitude;pressure_sealevel;temperature;humidity
11053;BME280;55230;42.602;23.470;2024-01-07T00:01:28;92061.25;;;6.70;82.29
11053;BME280;55230;42.602;23.470;2024-01-07T00:03:53;92049.78;;;6.60;82.63
11053;BME280;55230;42.602;23.470;2024-01-07T00:06:19;92050.19;;;6.66;82.51
11053;BME280;55230;42.602;23.470;2024-01-07T00:08:44;92043.16;;;6.59;82.93
11053;BME280;55230;42.602;23.470;2024-01-07T00:11:10;92041.19;;;6.46;82.84
11053;BME280;55230;42.602;23.470;2024-01-07T00:13:35;92036.06;;;6.46;83.36
11053;BME280;55230;42.602;23.470;2024-01-07T00:16:01;92039.72;;;6.45;82.83
11053;BME280;55230;42.602;23.470;2024-01-07T00:18:26;92028.22;;;6.32;83.07
11053;BME280;55230;42.602;23.470;2024-01-07T00:20:53;92022.94;;;6.17;83.58
11053;BME280;55230;42.602;23.470;2024-01-07T00:23:18;92031.41;;;6.21;83.56
11053;BME280;55230;42.602;23.470;2024-01-07T00:47:24;91989.34;;;5.96;84.15
11053;BME280;55230;42.602;23.470;2024-01-07T00:50:17;91977.66;;;5.69;85.41
11053;BME280;55230;42.602;23.470;2024-01-07T00:52:42;91944.38;;;5.46;84.60
11053;BME280;55230;42.602;23.470;2024-01-07T00:55:08;91969.16;;;5.65;85.68
11053;BME280;55230;42.602;23.470;2024-01-07T00:57:34;91954.75;;;5.56;85.90
11053;BME280;55230;42.602;23.470;2024-01-07T01:00:06;91960.84;;;5.75;86.73
11053;BME280;55230;42.602;23.470;2024-01-07T01:02:32;91957.88;;;5.73;86.22
11053;BME280;55230;42.602;23.470;2024-01-07T01:04:57;91943.22;;;5.73;86.47
11053;BME280;55230;42.602;23.470;2024-01-07T01:07:23;91946.97;;;5.79;87.17
11053;BME280;55230;42.602;23.470;2024-01-07T01:09:48;91930.22;;;5.89;85.64
11053;BME280;55230;42.602;23.470;2024-01-07T01:12:13;91918.25;;;6.04;86.10
11053;BME280;55230;42.602;23.470;2024-01-07T01:14:39;91901.97;;;5.89;86.75
11053;BME280;55230;42.602;23.470;2024-01-07T01:17:04;91908.06;;;6.11;86.42
11053;BME280;55230;42.602;23.470;2024-01-07T01:19:29;91913.03;;;6.34;86.86
11053;BME280;55230;42.602;23.470;2024-01-07T01:21:55;91916.53;;;6.62;85.69
11053;BME280;55230;42.602;23.470;2024-01-07T01:24:20;91908.41;;;6.53;84.51
11053;BME280;55230;42.602;23.470;2024-01-07T01:26:46;91896.00;;;6.15;84.54
11053;BME280;55230;42.602;23.470;2024-01-07T01:29:11;91912.53;;;6.17;84.17
11053;BME280;55230;42.602;23.470;2024-01-07T01:31:36;91891.00;;;5.92;84.61
11053;BME280;55230;42.602;23.470;2024-01-07T01:34:02;91884.44;;;5.94;85.16
11053;BME280;55230;42.602;23.470;2024-01-07T01:36:27;91878.97;;;5.63;85.71
11053;BME280;55230;42.602;23.470;2024-01-07T01:38:53;91869.63;;;5.81;87.16
11053;BME280;55230;42.602;23.470;2024-01-07T01:41:18;91866.34;;;6.24;86.31
11053;BME280;55230;42.602;23.470;2024-01-07T01:43:43;91857.69;;;6.43;86.08
11053;BME280;55230;42.602;23.470;2024-01-07T01:46:09;91849.72;;;6.59;85.14
11053;BME280;55230;42.602;23.470;2024-01-07T01:48:35;91841.69;;;6.64;84.65
11053;BME280;55230;42.602;23.470;2024-01-07T01:51:02;91822.72;;;6.93;83.07
11053;BME280;55230;42.602;23.470;2024-01-07T01:53:28;91836.44;;;6.50;82.73
11053;BME280;55230;42.602;23.470;2024-01-07T01:55:55;91817.44;;;6.03;84.21
11053;BME280;55230;42.602;23.470;2024-01-07T01:58:23;91846.91;;;6.23;84.82
11053;BME280;55230;42.602;23.470;2024-01-07T02:00:48;91842.47;;;6.17;84.91
11053;BME280;55230;42.602;23.470;2024-01-07T02:03:16;91834.06;;;6.23;84.36
11053;BME280;55230;42.602;23.470;2024-01-07T02:05:42;91843.53;;;6.71;83.75
11053;BME280;55230;42.602;23.470;2024-01-07T02:08:07;91848.84;;;6.41;83.82
11053;BME280;55230;42.602;23.470;2024-01-07T02:10:33;91833.34;;;6.26;83.96
11053;BME280;55230;42.602;23.470;2024-01-07T02:13:05;91820.09;;;6.17;85.13
11053;BME280;55230;42.602;23.470;2024-01-07T02:15:30;91796.25;;;6.20;84.67
11053;BME280;55230;42.602;23.470;2024-01-07T02:17:56;91805.59;;;6.46;85.02
11053;BME280;55230;42.602;23.470;2024-01-07T02:20:22;91796.16;;;6.64;84.86
11053;BME280;55230;42.602;23.470;2024-01-07T02:22:48;91778.16;;;6.61;84.95
11053;BME280;55230;42.602;23.470;2024-01-07T02:25:13;91775.75;;;7.00;83.24
11053;BME280;55230;42.602;23.470;2024-01-07T02:27:38;91755.19;;;7.04;83.53
11053;BME280;55230;42.602;23.470;2024-01-07T02:30:04;91750.81;;;7.11;82.27
11053;BME280;55230;42.602;23.470;2024-01-07T02:32:30;91763.94;;;6.88;82.89
11053;BME280;55230;42.602;23.470;2024-01-07T02:34:59;91763.88;;;6.67;83.10
11053;BME280;55230;42.602;23.470;2024-01-07T02:37:25;91756.09;;;6.56;83.49
11053;BME280;55230;42.602;23.470;2024-01-07T02:39:50;91766.09;;;6.69;83.40
11053;BME280;55230;42.602;23.470;2024-01-07T02:42:16;91763.50;;;6.72;83.00
11053;BME280;55230;42.602;23.470;2024-01-07T02:44:41;91770.06;;;6.59;83.71
11053;BME280;55230;42.602;23.470;2024-01-07T02:47:06;91742.31;;;6.20;85.44
11053;BME280;55230;42.602;23.470;2024-01-07T02:49:32;91739.31;;;6.08;85.42
11053;BME280;55230;42.602;23.470;2024-01-07T02:51:57;91766.22;;;6.28;85.72
11053;BME280;55230;42.602;23.470;2024-01-07T02:54:23;91768.56;;;6.51;85.27
11053;BME280;55230;42.602;23.470;2024-01-07T02:56:48;91777.03;;;6.58;85.13
11053;BME280;55230;42.602;23.470;2024-01-07T02:59:13;91773.50;;;6.84;85.63
11053;BME280;55230;42.602;23.470;2024-01-07T03:01:39;91770.66;;;7.18;84.41
11053;BME280;55230;42.602;23.470;2024-01-07T03:04:12;91733.91;;;7.21;84.54
11053;BME280;55230;42.602;23.470;2024-01-07T03:06:37;91740.19;;;7.41;84.21
11053;BME280;55230;42.602;23.470;2024-01-07T03:09:03;91736.91;;;7.48;84.50
11053;BME280;55230;42.602;23.470;2024-01-07T03:11:29;91728.44;;;7.47;84.56
11053;BME280;55230;42.602;23.470;2024-01-07T03:13:55;91744.25;;;7.56;84.00
11053;BME280;55230;42.602;23.470;2024-01-07T03:16:21;91739.09;;;7.56;84.59
11053;BME280;55230;42.602;23.470;2024-01-07T03:18:47;91756.38;;;7.56;83.65
11053;BME280;55230;42.602;23.470;2024-01-07T03:21:19;91739.88;;;7.64;83.06
11053;BME280;55230;42.602;23.470;2024-01-07T03:23:46;91761.56;;;7.66;84.17
11053;BME280;55230;42.602;23.470;2024-01-07T03:26:12;91764.13;;;7.66;84.21
11053;BME280;55230;42.602;23.470;2024-01-07T03:28:37;91771.47;;;7.54;84.82
11053;BME280;55230;42.602;23.470;2024-01-07T03:31:12;91771.47;;;7.54;84.26
11053;BME280;55230;42.602;23.470;2024-01-07T03:33:38;91779.94;;;7.61;84.04
11053;BME280;55230;42.602;23.470;2024-01-07T03:36:13;91782.88;;;7.49;84.47
11053;BME280;55230;42.602;23.470;2024-01-07T03:38:40;91786.16;;;7.50;84.31
11053;BME280;55230;42.602;23.470;2024-01-07T03:41:06;91778.06;;;7.55;85.33
11053;BME280;55230;42.602;23.470;2024-01-07T03:43:32;91770.00;;;7.49;85.08
11053;BME280;55230;42.602;23.470;2024-01-07T03:45:58;91771.09;;;7.62;84.00
11053;BME280;55230;42.602;23.470;2024-01-07T03:48:23;91764.47;;;7.54;84.37
11053;BME280;55230;42.602;23.470;2024-01-07T03:50:49;91753.81;;;7.59;84.01
11053;BME280;55230;42.602;23.470;2024-01-07T03:53:15;91760.44;;;7.46;83.80
11053;BME280;55230;42.602;23.470;2024-01-07T03:55:40;91746.47;;;7.51;82.93
11053;BME280;55230;42.602;23.470;2024-01-07T03:58:06;91752.31;;;7.41;82.37
11053;BME280;55230;42.602;23.470;2024-01-07T04:00:32;91742.03;;;7.41;81.87
11053;BME280;55230;42.602;23.470;2024-01-07T04:02:57;91740.22;;;7.34;83.09
11053;BME280;55230;42.602;23.470;2024-01-07T04:05:23;91747.16;;;7.30;82.60
11053;BME280;55230;42.602;23.470;2024-01-07T04:07:48;91732.09;;;7.28;83.08
11053;BME280;55230;42.602;23.470;2024-01-07T04:10:16;91725.50;;;7.20;84.15
11053;BME280;55230;42.602;23.470;2024-01-07T04:12:42;91726.91;;;7.11;83.79
11053;BME280;55230;42.602;23.470;2024-01-07T04:15:07;91735.34;;;7.08;85.02
11053;BME280;55230;42.602;23.470;2024-01-07T04:17:33;91739.41;;;7.02;85.21
11053;BME280;55230;42.602;23.470;2024-01-07T04:19:58;91729.84;;;7.09;84.33
11053;BME280;55230;42.602;23.470;2024-01-07T04:22:24;91696.38;;;6.81;85.66
11053;BME280;55230;42.602;23.470;2024-01-07T04:24:49;91705.56;;;6.85;85.85
11053;BME280;55230;42.602;23.470;2024-01-07T04:27:14;91696.78;;;6.97;86.50
11053;BME280;55230;42.602;23.470;2024-01-07T04:29:40;91691.59;;;6.90;85.93
11053;BME280;55230;42.602;23.470;2024-01-07T04:32:05;91689.72;;;6.69;86.39
11053;BME280;55230;42.602;23.470;2024-01-07T04:34:31;91666.09;;;6.32;87.40
11053;BME280;55230;42.602;23.470;2024-01-07T04:36:56;91674.25;;;6.55;88.03
11053;BME280;55230;42.602;23.470;2024-01-07T04:39:21;91676.09;;;6.51;87.82
11053;BME280;55230;42.602;23.470;2024-01-07T04:41:47;91685.19;;;6.34;89.22
11053;BME280;55230;42.602;23.470;2024-01-07T04:44:12;91705.34;;;6.32;89.83
11053;BME280;55230;42.602;23.470;2024-01-07T04:46:38;91708.63;;;6.25;89.35
11053;BME280;55230;42.602;23.470;2024-01-07T04:49:04;91708.94;;;6.20;90.30
11053;BME280;55230;42.602;23.470;2024-01-07T04:51:31;91711.09;;;6.08;90.76
11053;BME280;55230;42.602;23.470;2024-01-07T04:53:56;91722.81;;;6.05;91.87
11053;BME280;55230;42.602;23.470;2024-01-07T04:56:22;91715.69;;;5.88;92.93
11053;BME280;55230;42.602;23.470;2024-01-07T04:58:47;91712.00;;;5.82;93.10
11053;BME280;55230;42.602;23.470;2024-01-07T05:01:13;91710.56;;;5.88;93.48
11053;BME280;55230;42.602;23.470;2024-01-07T05:03:38;91696.56;;;5.75;91.93
11053;BME280;55230;42.602;23.470;2024-01-07T05:06:04;91704.59;;;5.70;93.48
11053;BME280;55230;42.602;23.470;2024-01-07T05:08:30;91719.28;;;5.76;93.41
11053;BME280;55230;42.602;23.470;2024-01-07T05:10:55;91700.22;;;5.74;93.52
11053;BME280;55230;42.602;23.470;2024-01-07T05:13:21;91715.22;;;5.68;94.05
11053;BME280;55230;42.602;23.470;2024-01-07T05:15:46;91717.72;;;5.61;94.85
11053;BME280;55230;42.602;23.470;2024-01-07T05:18:20;91708.09;;;5.47;94.88
11053;BME280;55230;42.602;23.470;2024-01-07T05:20:45;91705.34;;;5.26;95.59
11053;BME280;55230;42.602;23.470;2024-01-07T05:23:11;91685.50;;;4.79;96.57
11053;BME280;55230;42.602;23.470;2024-01-07T05:25:36;91724.31;;;4.81;95.71
11053;BME280;55230;42.602;23.470;2024-01-07T05:28:02;91724.38;;;4.88;94.85
11053;BME280;55230;42.602;23.470;2024-01-07T05:30:27;91707.69;;;5.01;95.09
11053;BME280;55230;42.602;23.470;2024-01-07T05:32:53;91718.72;;;5.09;93.26
11053;BME280;55230;42.602;23.470;2024-01-07T05:35:18;91701.09;;;5.04;94.89
11053;BME280;55230;42.602;23.470;2024-01-07T05:37:44;91703.13;;;5.24;93.71
11053;BME280;55230;42.602;23.470;2024-01-07T05:40:09;91716.78;;;5.36;93.74
11053;BME280;55230;42.602;23.470;2024-01-07T05:42:35;91718.69;;;5.46;93.94
11053;BME280;55230;42.602;23.470;2024-01-07T05:45:01;91718.25;;;5.37;93.65
11053;BME280;55230;42.602;23.470;2024-01-07T05:47:27;91708.00;;;5.40;93.65
11053;BME280;55230;42.602;23.470;2024-01-07T05:49:53;91712.53;;;5.54;93.35
11053;BME280;55230;42.602;23.470;2024-01-07T05:52:19;91737.97;;;5.73;93.23
11053;BME280;55230;42.602;23.470;2024-01-07T05:54:44;91722.22;;;5.75;92.68
11053;BME280;55230;42.602;23.470;2024-01-07T05:57:11;91721.50;;;5.78;92.09
11053;BME280;55230;42.602;23.470;2024-01-07T05:59:37;91728.09;;;5.79;92.56
11053;BME280;55230;42.602;23.470;2024-01-07T06:02:03;91726.94;;;5.69;93.17
11053;BME280;55230;42.602;23.470;2024-01-07T06:18:29;91680.66;;;5.55;91.25
11053;BME280;55230;42.602;23.470;2024-01-07T06:24:50;91685.44;;;5.56;91.85
11053;BME280;55230;42.602;23.470;2024-01-07T06:27:30;91670.06;;;5.60;91.50
11053;BME280;55230;42.602;23.470;2024-01-07T06:33:25;91698.75;;;5.76;91.60
11053;BME280;55230;42.602;23.470;2024-01-07T06:35:51;91692.69;;;5.47;92.70
11053;BME280;55230;42.602;23.470;2024-01-07T06:38:16;91708.25;;;5.69;93.10
11053;BME280;55230;42.602;23.470;2024-01-07T06:40:42;91717.84;;;5.79;92.15
11053;BME280;55230;42.602;23.470;2024-01-07T06:43:07;91716.47;;;5.88;91.92
11053;BME280;55230;42.602;23.470;2024-01-07T06:45:32;91735.59;;;5.98;92.02
11053;BME280;55230;42.602;23.470;2024-01-07T06:47:58;91731.25;;;6.09;91.88
11053;BME280;55230;42.602;23.470;2024-01-07T06:50:23;91735.78;;;6.26;91.40
11053;BME280;55230;42.602;23.470;2024-01-07T06:53:19;91742.13;;;6.47;90.77
11053;BME280;55230;42.602;23.470;2024-01-07T06:56:29;91724.91;;;6.51;89.99
11053;BME280;55230;42.602;23.470;2024-01-07T07:23:19;91698.66;;;7.14;86.91
11053;BME280;55230;42.602;23.470;2024-01-07T07:25:45;91711.94;;;7.52;86.54
11053;BME280;55230;42.602;23.470;2024-01-07T07:28:11;91721.84;;;7.82;84.08
11053;BME280;55230;42.602;23.470;2024-01-07T07:30:42;91700.88;;;7.41;84.07
11053;BME280;55230;42.602;23.470;2024-01-07T07:33:08;91702.66;;;7.08;84.96
11053;BME280;55230;42.602;23.470;2024-01-07T07:35:33;91710.25;;;6.62;86.34
11053;BME280;55230;42.602;23.470;2024-01-07T07:37:58;91715.88;;;6.99;86.02
11053;BME280;55230;42.602;23.470;2024-01-07T07:40:24;91715.59;;;7.44;85.97
11053;BME280;55230;42.602;23.470;2024-01-07T07:42:50;91698.69;;;7.57;83.79
11053;BME280;55230;42.602;23.470;2024-01-07T07:45:16;91699.75;;;7.95;82.71
11053;BME280;55230;42.602;23.470;2024-01-07T07:47:42;91697.91;;;8.06;79.90
11053;BME280;55230;42.602;23.470;2024-01-07T07:50:10;91709.66;;;8.35;80.30
11053;BME280;55230;42.602;23.470;2024-01-07T07:52:36;91716.25;;;8.54;80.26
11053;BME280;55230;42.602;23.470;2024-01-07T07:55:03;91695.19;;;8.70;79.64
11053;BME280;55230;42.602;23.470;2024-01-07T07:57:52;91677.19;;;8.56;77.76
11053;BME280;55230;42.602;23.470;2024-01-07T08:00:20;91684.06;;;8.87;77.19
11053;BME280;55230;42.602;23.470;2024-01-07T08:02:46;91695.34;;;9.11;77.52
11053;BME280;55230;42.602;23.470;2024-01-07T08:05:11;91676.19;;;9.05;77.69
11053;BME280;55230;42.602;23.470;2024-01-07T08:07:37;91699.19;;;8.78;76.89
11053;BME280;55230;42.602;23.470;2024-01-07T08:10:10;91705.50;;;8.63;77.62
11053;BME280;55230;42.602;23.470;2024-01-07T08:12:35;91689.06;;;8.14;80.14
11053;BME280;55230;42.602;23.470;2024-01-07T08:15:01;91693.47;;;8.10;79.08
11053;BME280;55230;42.602;23.470;2024-01-07T08:17:36;91705.19;;;6.83;85.82
11053;BME280;55230;42.602;23.470;2024-01-07T08:20:02;91680.34;;;6.22;91.05
11053;BME280;55230;42.602;23.470;2024-01-07T08:22:35;91698.13;;;5.90;93.49
11053;BME280;55230;42.602;23.470;2024-01-07T08:25:04;91698.47;;;5.85;94.22
11053;BME280;55230;42.602;23.470;2024-01-07T08:27:29;91683.31;;;5.66;95.62
11053;BME280;55230;42.602;23.470;2024-01-07T08:29:55;91704.34;;;5.85;95.21
11053;BME280;55230;42.602;23.470;2024-01-07T08:32:20;91702.25;;;6.05;93.87
11053;BME280;55230;42.602;23.470;2024-01-07T08:34:48;91699.19;;;5.82;94.52
11053;BME280;55230;42.602;23.470;2024-01-07T08:37:13;91718.69;;;5.93;93.25
11053;BME280;55230;42.602;23.470;2024-01-07T08:39:38;91685.16;;;5.72;92.72
11053;BME280;55230;42.602;23.470;2024-01-07T08:42:04;91695.97;;;5.92;92.41
11053;BME280;55230;42.602;23.470;2024-01-07T08:44:30;91701.38;;;6.45;92.07
11053;BME280;55230;42.602;23.470;2024-01-07T08:46:55;91684.28;;;6.05;92.37
11053;BME280;55230;42.602;23.470;2024-01-07T08:49:21;91701.16;;;6.86;90.92
11053;BME280;55230;42.602;23.470;2024-01-07T08:51:46;91689.13;;;7.36;87.56
11053;BME280;55230;42.602;23.470;2024-01-07T08:54:12;91686.53;;;7.86;85.72
11053;BME280;55230;42.602;23.470;2024-01-07T08:56:37;91686.47;;;8.35;82.73
11053;BME280;55230;42.602;23.470;2024-01-07T08:59:04;91693.28;;;8.81;82.97
11053;BME280;55230;42.602;23.470;2024-01-07T09:01:30;91683.56;;;9.10;82.31
11053;BME280;55230;42.602;23.470;2024-01-07T09:03:55;91690.06;;;9.84;78.20
11053;BME280;55230;42.602;23.470;2024-01-07T09:06:21;91690.75;;;10.29;76.33
11053;BME280;55230;42.602;23.470;2024-01-07T09:08:46;91688.88;;;10.67;72.42
11053;BME280;55230;42.602;23.470;2024-01-07T09:11:11;91686.44;;;9.74;75.93
11053;BME280;55230;42.602;23.470;2024-01-07T09:13:38;91698.72;;;9.56;76.16
11053;BME280;55230;42.602;23.470;2024-01-07T09:16:04;91695.63;;;8.51;82.29
11053;BME280;55230;42.602;23.470;2024-01-07T09:18:29;91698.66;;;7.96;84.76
11053;BME280;55230;42.602;23.470;2024-01-07T09:20:56;91707.84;;;7.19;87.33
11053;BME280;55230;42.602;23.470;2024-01-07T09:23:22;91696.72;;;6.79;89.61
11053;BME280;55230;42.602;23.470;2024-01-07T09:47:01;91669.25;;;7.40;86.73
11053;BME280;55230;42.602;23.470;2024-01-07T09:49:26;91681.03;;;7.34;87.34
11053;BME280;55230;42.602;23.470;2024-01-07T09:51:55;91681.03;;;7.52;86.38
11053;BME280;55230;42.602;23.470;2024-01-07T09:54:24;91696.84;;;7.43;87.69
11053;BME280;55230;42.602;23.470;2024-01-07T09:56:55;91696.09;;;7.89;85.43
11053;BME280;55230;42.602;23.470;2024-01-07T09:59:24;91685.00;;;8.20;82.19
11053;BME280;55230;42.602;23.470;2024-01-07T10:01:50;91685.69;;;8.46;81.67
11053;BME280;55230;42.602;23.470;2024-01-07T10:04:16;91694.03;;;8.74;79.42
11053;BME280;55230;42.602;23.470;2024-01-07T10:06:41;91678.53;;;8.85;80.69
11053;BME280;55230;42.602;23.470;2024-01-07T10:09:06;91676.66;;;8.89;80.71
11053;BME280;55230;42.602;23.470;2024-01-07T10:11:32;91683.22;;;7.99;82.98
11053;BME280;55230;42.602;23.470;2024-01-07T10:13:58;91681.34;;;8.07;83.31
11053;BME280;55230;42.602;23.470;2024-01-07T10:16:23;91680.91;;;8.44;79.66
11053;BME280;55230;42.602;23.470;2024-01-07T10:18:49;91678.94;;;8.73;80.98
11053;BME280;55230;42.602;23.470;2024-01-07T10:21:14;91680.88;;;9.28;76.70
11053;BME280;55230;42.602;23.470;2024-01-07T10:23:39;91670.28;;;9.08;76.98
11053;BME280;55230;42.602;23.470;2024-01-07T10:26:05;91662.44;;;8.56;78.69
11053;BME280;55230;42.602;23.470;2024-01-07T10:28:31;91667.41;;;9.02;78.26
11053;BME280;55230;42.602;23.470;2024-01-07T10:30:57;91658.81;;;8.50;80.00
11053;BME280;55230;42.602;23.470;2024-01-07T10:33:22;91667.28;;;8.54;80.25
11053;BME280;55230;42.602;23.470;2024-01-07T10:36:01;91661.44;;;8.25;79.84
11053;BME280;55230;42.602;23.470;2024-01-07T10:38:26;91638.56;;;8.42;79.24
11053;BME280;55230;42.602;23.470;2024-01-07T10:40:54;91641.56;;;8.29;80.04
11053;BME280;55230;42.602;23.470;2024-01-07T10:43:21;91635.25;;;8.45;80.05
11053;BME280;55230;42.602;23.470;2024-01-07T10:46:06;91645.19;;;9.16;76.62
11053;BME280;55230;42.602;23.470;2024-01-07T10:49:45;91623.59;;;9.47;74.98
11053;BME280;55230;42.602;23.470;2024-01-07T10:55:36;91657.00;;;10.06;73.04
11053;BME280;55230;42.602;23.470;2024-01-07T11:10:50;91628.97;;;10.04;73.23
11053;BME280;55230;42.602;23.470;2024-01-07T11:13:38;91624.25;;;9.96;72.89
11053;BME280;55230;42.602;23.470;2024-01-07T11:16:05;91625.94;;;10.13;73.37
11053;BME280;55230;42.602;23.470;2024-01-07T11:18:31;91625.22;;;10.09;72.69
11053;BME280;55230;42.602;23.470;2024-01-07T11:21:01;91630.44;;;9.20;74.67
11053;BME280;55230;42.602;23.470;2024-01-07T11:23:28;91638.97;;;9.61;74.11
11053;BME280;55230;42.602;23.470;2024-01-07T11:25:56;91625.31;;;9.61;73.37
11053;BME280;55230;42.602;23.470;2024-01-07T11:31:17;91636.91;;;8.87;79.58
11053;BME280;55230;42.602;23.470;2024-01-07T11:33:50;91641.56;;;9.06;76.50
11053;BME280;55230;42.602;23.470;2024-01-07T11:36:16;91636.34;;;9.17;77.01
11053;BME280;55230;42.602;23.470;2024-01-07T11:38:47;91629.63;;;9.26;73.91
11053;BME280;55230;42.602;23.470;2024-01-07T11:41:15;91635.28;;;9.59;74.67
11053;BME280;55230;42.602;23.470;2024-01-07T11:43:57;91620.75;;;9.75;71.99
11053;BME280;55230;42.602;23.470;2024-01-07T11:46:28;91637.88;;;10.00;72.65
11053;BME280;55230;42.602;23.470;2024-01-07T11:48:55;91631.69;;;9.90;71.55
11053;BME280;55230;42.602;23.470;2024-01-07T11:51:31;91623.56;;;9.92;71.63
11053;BME280;55230;42.602;23.470;2024-01-07T11:53:57;91624.19;;;10.03;72.95
11053;BME280;55230;42.602;23.470;2024-01-07T11:56:27;91619.16;;;10.26;70.33
11053;BME280;55230;42.602;23.470;2024-01-07T11:58:53;91628.09;;;10.18;70.44
11053;BME280;55230;42.602;23.470;2024-01-07T12:01:18;91634.03;;;10.19;71.12
11053;BME280;55230;42.602;23.470;2024-01-07T12:03:44;91629.00;;;10.01;70.87
11053;BME280;55230;42.602;23.470;2024-01-07T12:06:10;91638.47;;;10.14;72.40
11053;BME280;55230;42.602;23.470;2024-01-07T12:08:42;91637.47;;;10.05;70.65
11053;BME280;55230;42.602;23.470;2024-01-07T12:11:09;91630.88;;;9.56;73.29
11053;BME280;55230;42.602;23.470;2024-01-07T12:13:36;91630.19;;;9.03;76.03
11053;BME280;55230;42.602;23.470;2024-01-07T12:16:02;91633.13;;;9.54;75.51
11053;BME280;55230;42.602;23.470;2024-01-07T12:18:29;91629.09;;;9.53;75.00
11053;BME280;55230;42.602;23.470;2024-01-07T12:20:58;91631.72;;;9.42;75.60
11053;BME280;55230;42.602;23.470;2024-01-07T12:23:28;91619.63;;;9.35;74.88
11053;BME280;55230;42.602;23.470;2024-01-07T12:25:53;91624.44;;;9.33;76.59
11053;BME280;55230;42.602;23.470;2024-01-07T12:28:21;91639.31;;;9.63;76.47
11053;BME280;55230;42.602;23.470;2024-01-07T12:46:25;91641.25;;;9.52;74.59
11053;BME280;55230;42.602;23.470;2024-01-07T12:53:10;91651.28;;;9.88;75.62
11053;BME280;55230;42.602;23.470;2024-01-07T12:55:36;91646.88;;;9.85;73.26
11053;BME280;55230;42.602;23.470;2024-01-07T12:58:01;91643.75;;;9.59;74.18
11053;BME280;55230;42.602;23.470;2024-01-07T13:00:27;91649.88;;;9.79;75.24
11053;BME280;55230;42.602;23.470;2024-01-07T13:02:56;91654.53;;;9.92;75.57
11053;BME280;55230;42.602;23.470;2024-01-07T13:05:22;91647.13;;;9.97;75.61
11053;BME280;55230;42.602;23.470;2024-01-07T13:07:48;91651.78;;;10.09;73.95
11053;BME280;55230;42.602;23.470;2024-01-07T13:10:15;91640.63;;;9.82;74.36
11053;BME280;55230;42.602;23.470;2024-01-07T13:12:40;91651.53;;;10.00;74.81
11053;BME280;55230;42.602;23.470;2024-01-07T13:15:06;91659.94;;;10.08;73.00
11053;BME280;55230;42.602;23.470;2024-01-07T13:17:32;91663.53;;;10.18;72.19
11053;BME280;55230;42.602;23.470;2024-01-07T13:19:58;91662.44;;;10.19;72.85
11053;BME280;55230;42.602;23.470;2024-01-07T13:22:24;91661.78;;;10.07;71.83
11053;BME280;55230;42.602;23.470;2024-01-07T13:24:49;91653.16;;;9.84;74.12
11053;BME280;55230;42.602;23.470;2024-01-07T13:41:09;91668.78;;;9.69;73.55
11053;BME280;55230;42.602;23.470;2024-01-07T13:54:47;91667.72;;;9.63;73.09
11053;BME280;55230;42.602;23.470;2024-01-07T14:07:10;91650.22;;;9.37;73.06
11053;BME280;55230;42.602;23.470;2024-01-07T14:09:40;91656.88;;;9.31;72.54
11053;BME280;55230;42.602;23.470;2024-01-07T14:12:07;91668.31;;;9.33;73.79
11053;BME280;55230;42.602;23.470;2024-01-07T14:14:33;91666.03;;;9.39;72.69
11053;BME280;55230;42.602;23.470;2024-01-07T14:17:02;91646.66;;;9.20;74.12
11053;BME280;55230;42.602;23.470;2024-01-07T14:19:27;91670.91;;;9.26;74.80
11053;BME280;55230;42.602;23.470;2024-01-07T14:21:53;91658.09;;;9.16;73.21
11053;BME280;55230;42.602;23.470;2024-01-07T14:35:05;91666.09;;;8.66;75.87
11053;BME280;55230;42.602;23.470;2024-01-07T14:44:49;91674.81;;;8.90;75.71
11053;BME280;55230;42.602;23.470;2024-01-07T14:47:15;91670.41;;;8.90;77.03
11053;BME280;55230;42.602;23.470;2024-01-07T14:49:41;91688.03;;;9.02;78.10
11053;BME280;55230;42.602;23.470;2024-01-07T14:52:06;91686.97;;;8.89;76.13
11053;BME280;55230;42.602;23.470;2024-01-07T14:54:32;91682.94;;;8.88;76.83
11053;BME280;55230;42.602;23.470;2024-01-07T14:56:58;91688.44;;;8.90;76.33
11053;BME280;55230;42.602;23.470;2024-01-07T14:59:24;91701.31;;;8.97;76.20
11053;BME280;55230;42.602;23.470;2024-01-07T15:01:49;91692.13;;;8.89;77.52
11053;BME280;55230;42.602;23.470;2024-01-07T15:04:15;91690.34;;;8.79;77.79
11053;BME280;55230;42.602;23.470;2024-01-07T15:06:41;91702.94;;;8.66;80.97
11053;BME280;55230;42.602;23.470;2024-01-07T15:09:07;91701.47;;;8.58;79.81
11053;BME280;55230;42.602;23.470;2024-01-07T15:11:32;91700.41;;;8.52;81.15
11053;BME280;55230;42.602;23.470;2024-01-07T15:13:58;91695.25;;;8.49;80.90
11053;BME280;55230;42.602;23.470;2024-01-07T15:16:24;91700.78;;;8.44;80.94
11053;BME280;55230;42.602;23.470;2024-01-07T15:18:49;91699.72;;;8.34;82.02
11053;BME280;55230;42.602;23.470;2024-01-07T15:21:14;91701.56;;;8.19;82.14
11053;BME280;55230;42.602;23.470;2024-01-07T15:23:40;91689.06;;;8.14;81.85
11053;BME280;55230;42.602;23.470;2024-01-07T15:26:05;91710.38;;;8.25;82.97
11053;BME280;55230;42.602;23.470;2024-01-07T15:28:30;91712.94;;;8.22;81.48
11053;BME280;55230;42.602;23.470;2024-01-07T15:30:56;91717.75;;;8.13;83.41
11053;BME280;55230;42.602;23.470;2024-01-07T15:33:21;91710.81;;;8.02;81.42
11053;BME280;55230;42.602;23.470;2024-01-07T15:35:47;91693.13;;;8.01;81.72
11053;BME280;55230;42.602;23.470;2024-01-07T15:38:16;91708.59;;;7.97;82.50
11053;BME280;55230;42.602;23.470;2024-01-07T15:40:41;91699.41;;;8.00;82.77
11053;BME280;55230;42.602;23.470;2024-01-07T15:43:09;91713.00;;;8.00;82.51
11053;BME280;55230;42.602;23.470;2024-01-07T15:45:37;91689.09;;;7.71;83.64
11053;BME280;55230;42.602;23.470;2024-01-07T15:48:04;91706.03;;;7.87;82.77
11053;BME280;55230;42.602;23.470;2024-01-07T15:50:30;91694.63;;;7.81;82.68
11053;BME280;55230;42.602;23.470;2024-01-07T15:52:56;91697.94;;;7.78;84.00
11053;BME280;55230;42.602;23.470;2024-01-07T15:55:24;91714.13;;;7.85;82.77
11053;BME280;55230;42.602;23.470;2024-01-07T15:57:49;91721.84;;;7.82;83.07
11053;BME280;55230;42.602;23.470;2024-01-07T16:00:15;91722.94;;;7.81;82.88